createdAt,value
2019-03-19T00:00:12.535Z,25.72
2019-03-19T00:02:39.307Z,24.98
2019-03-19T00:05:06.107Z,31.90
2019-03-19T00:07:33.673Z,37.80
2019-03-19T00:10:00.378Z,37.42
2019-03-19T00:12:27.193Z,28.95
2019-03-19T00:14:53.896Z,32.85
2019-03-19T00:17:20.670Z,26.82
2019-03-19T00:19:47.734Z,33.18
2019-03-19T00:22:14.704Z,25.43
2019-03-19T00:24:41.302Z,24.70
2019-03-19T00:27:07.972Z,26.27
2019-03-19T00:29:34.868Z,32.28
2019-03-19T00:32:02.101Z,30.17
2019-03-19T00:34:28.783Z,29.77
2019-03-19T00:36:55.393Z,26.70
2019-03-19T00:39:22.187Z,23.70
2019-03-19T00:41:48.774Z,21.85
2019-03-19T00:44:15.591Z,44.42
2019-03-19T00:46:42.173Z,31.87
2019-03-19T00:49:08.874Z,35.33
2019-03-19T00:51:35.659Z,35.17
2019-03-19T00:54:02.377Z,34.38
2019-03-19T00:56:29.065Z,36.13
2019-03-19T00:58:55.760Z,37.90
2019-03-19T01:01:22.527Z,35.35
2019-03-19T01:03:49.339Z,34.53
2019-03-19T01:06:16.129Z,38.35
2019-03-19T01:08:42.822Z,41.83
2019-03-19T01:11:09.414Z,40.23
2019-03-19T01:13:36.218Z,29.52
2019-03-19T01:16:03.348Z,34.08
2019-03-19T01:18:29.938Z,29.25
2019-03-19T01:20:56.752Z,31.62
2019-03-19T01:23:23.432Z,32.48
2019-03-19T01:25:55.698Z,30.40
2019-03-19T01:28:18.754Z,29.55
2019-03-19T01:30:45.867Z,26.42
2019-03-19T01:33:12.457Z,35.70
2019-03-19T01:35:39.175Z,36.75
2019-03-19T01:38:05.956Z,29.02
2019-03-19T01:40:32.771Z,38.78
2019-03-19T01:42:59.875Z,33.60
2019-03-19T01:45:26.576Z,21.42
2019-03-19T01:47:53.161Z,39.88
2019-03-19T01:50:19.882Z,36.53
2019-03-19T01:52:47.709Z,36.03
2019-03-19T01:55:14.512Z,34.08
2019-03-19T01:57:41.318Z,33.50
2019-03-19T02:00:08.690Z,27.27
2019-03-19T02:02:35.473Z,38.85
2019-03-19T02:05:02.180Z,34.08
2019-03-19T02:07:28.973Z,37.70
2019-03-19T02:09:55.763Z,33.63
2019-03-19T02:12:22.549Z,37.03
2019-03-19T02:14:49.246Z,32.98
2019-03-19T02:17:16.037Z,38.00
2019-03-19T02:19:42.756Z,46.95
2019-03-19T02:22:09.448Z,38.02
2019-03-19T02:24:36.043Z,39.80
2019-03-19T02:27:03.065Z,47.05
2019-03-19T02:29:29.654Z,35.68
2019-03-19T02:31:56.391Z,31.68
2019-03-19T02:34:25.020Z,37.40
2019-03-19T02:36:51.774Z,32.45
2019-03-19T02:39:18.370Z,31.30
2019-03-19T02:41:46.235Z,34.05
2019-03-19T02:44:12.917Z,43.10
2019-03-19T02:46:41.514Z,32.33
2019-03-19T02:49:08.310Z,35.23
2019-03-19T02:51:34.901Z,29.10
2019-03-19T02:54:01.630Z,33.45
2019-03-19T02:56:33.172Z,33.00
2019-03-19T02:58:57.067Z,38.10
2019-03-19T03:01:23.672Z,35.10
2019-03-19T03:03:50.245Z,42.58
2019-03-19T03:06:16.940Z,38.60
2019-03-19T03:08:43.717Z,45.30
2019-03-19T03:11:10.410Z,38.02
2019-03-19T03:13:37.421Z,45.43
2019-03-19T03:16:04.219Z,33.15
2019-03-19T03:18:30.989Z,35.65
2019-03-19T03:20:57.684Z,35.35
2019-03-19T03:23:25.556Z,31.30
2019-03-19T03:25:52.140Z,37.80
2019-03-19T03:28:18.820Z,36.17
2019-03-19T03:30:45.812Z,30.88
2019-03-19T03:33:12.529Z,43.13
2019-03-19T03:35:39.227Z,40.25
2019-03-19T03:38:06.003Z,35.80
2019-03-19T03:40:32.795Z,33.08
2019-03-19T03:42:59.577Z,38.23
2019-03-19T03:45:26.969Z,38.63
2019-03-19T03:47:53.761Z,30.82
2019-03-19T03:50:20.507Z,36.00
2019-03-19T03:52:47.160Z,31.40
2019-03-19T03:55:14.026Z,41.65
2019-03-19T03:57:40.810Z,31.50
2019-03-19T04:00:10.116Z,36.90
2019-03-19T04:02:36.789Z,45.78
2019-03-19T04:05:04.239Z,39.73
2019-03-19T04:07:30.931Z,42.62
2019-03-19T04:09:57.614Z,33.53
2019-03-19T04:12:24.302Z,29.85
2019-03-19T04:14:51.075Z,43.83
2019-03-19T04:17:17.878Z,39.60
2019-03-19T04:19:44.544Z,44.05
2019-03-19T04:22:11.332Z,45.30
2019-03-19T04:24:38.204Z,32.78
2019-03-19T04:27:15.473Z,35.13
2019-03-19T04:29:33.469Z,38.88
2019-03-19T04:32:00.077Z,36.45
2019-03-19T04:34:26.660Z,33.73
2019-03-19T04:36:53.359Z,55.67
2019-03-19T04:39:20.028Z,53.85
2019-03-19T04:41:46.740Z,43.95
2019-03-19T04:44:13.308Z,40.03
2019-03-19T04:46:40.117Z,54.65
2019-03-19T04:49:06.681Z,52.80
2019-03-19T04:51:33.454Z,47.20
2019-03-19T04:54:00.058Z,51.13
2019-03-19T04:56:26.758Z,46.77
2019-03-19T04:58:53.331Z,49.77
2019-03-19T05:01:20.149Z,50.45
2019-03-19T05:03:46.725Z,42.17
2019-03-19T05:06:13.421Z,48.83
2019-03-19T05:08:39.994Z,46.30
2019-03-19T05:11:06.719Z,54.03
2019-03-19T05:13:33.288Z,53.00
2019-03-19T05:16:00.154Z,45.85
2019-03-19T05:18:26.929Z,58.17
2019-03-19T05:20:55.171Z,55.78
2019-03-19T05:23:21.741Z,49.93
2019-03-19T05:25:48.311Z,45.78
2019-03-19T05:28:14.999Z,47.83
2019-03-19T05:30:41.572Z,49.58
2019-03-19T05:33:08.260Z,55.10
2019-03-19T05:35:34.974Z,51.48
2019-03-19T05:38:01.749Z,49.53
2019-03-19T05:40:28.403Z,61.45
2019-03-19T05:42:54.993Z,53.00
2019-03-19T05:45:21.663Z,52.85
2019-03-19T05:47:48.253Z,56.13
2019-03-19T05:50:15.035Z,44.33
2019-03-19T05:52:41.828Z,44.38
2019-03-19T05:55:09.402Z,60.45
2019-03-19T05:57:36.165Z,55.08
2019-03-19T06:00:03.892Z,50.38
2019-03-19T06:02:30.560Z,52.35
2019-03-19T06:04:57.150Z,45.88
2019-03-19T06:07:23.723Z,61.13
2019-03-19T06:09:50.528Z,50.10
2019-03-19T06:12:17.314Z,39.15
2019-03-19T06:14:43.989Z,57.13
2019-03-19T06:17:10.587Z,48.08
2019-03-19T06:19:37.155Z,47.95
2019-03-19T06:22:03.841Z,44.53
2019-03-19T06:24:30.602Z,46.15
2019-03-19T06:26:57.292Z,35.80
2019-03-19T06:29:23.969Z,48.40
2019-03-19T06:31:50.660Z,39.55
2019-03-19T06:34:17.328Z,40.67
2019-03-19T06:36:44.047Z,34.95
2019-03-19T06:39:10.595Z,28.83
2019-03-19T06:41:37.288Z,36.15
2019-03-19T06:44:04.065Z,36.17
2019-03-19T06:46:30.843Z,35.03
2019-03-19T06:48:57.538Z,32.85
2019-03-19T06:51:24.122Z,36.48
2019-03-19T06:53:50.713Z,36.38
2019-03-19T06:56:17.425Z,30.70
2019-03-19T06:58:44.214Z,33.98
2019-03-19T07:01:10.880Z,38.30
2019-03-19T07:03:37.572Z,31.60
2019-03-19T07:06:04.347Z,33.73
2019-03-19T07:08:31.036Z,32.55
2019-03-19T07:10:57.718Z,30.48
2019-03-19T07:13:24.321Z,20.97
2019-03-19T07:15:50.995Z,29.05
2019-03-19T07:18:17.794Z,29.98
2019-03-19T07:20:44.392Z,29.95
2019-03-19T07:23:11.177Z,30.08
2019-03-19T07:25:37.961Z,19.15
2019-03-19T07:28:04.763Z,25.43
2019-03-19T07:30:31.539Z,33.35
2019-03-19T07:32:58.225Z,22.73
2019-03-19T07:35:25.017Z,34.75
2019-03-19T07:37:51.802Z,23.32
2019-03-19T07:40:18.573Z,37.10
2019-03-19T07:42:45.366Z,23.32
2019-03-19T07:45:13.103Z,22.65
2019-03-19T07:47:39.923Z,28.32
2019-03-19T07:50:08.438Z,35.08
2019-03-19T07:52:35.109Z,28.35
2019-03-19T07:55:01.781Z,33.02
2019-03-19T07:57:29.585Z,23.40
2019-03-19T07:59:56.367Z,27.32
2019-03-19T08:02:23.174Z,20.82
2019-03-19T08:04:49.749Z,30.60
2019-03-19T08:07:16.429Z,24.02
2019-03-19T08:09:43.123Z,32.03
2019-03-19T08:12:09.702Z,35.75
2019-03-19T08:14:36.398Z,24.37
2019-03-19T08:17:03.164Z,28.50
2019-03-19T08:19:29.970Z,36.40
2019-03-19T08:21:56.759Z,28.70
2019-03-19T08:24:23.450Z,27.35
2019-03-19T08:27:09.657Z,23.35
2019-03-19T08:29:36.366Z,23.90
2019-03-19T08:32:03.160Z,29.40
2019-03-19T08:34:29.871Z,27.52
2019-03-19T08:36:56.545Z,23.75
2019-03-19T08:39:23.253Z,28.77
2019-03-19T08:41:49.798Z,38.02
2019-03-19T08:44:16.393Z,25.00
2019-03-19T08:46:43.052Z,25.52
2019-03-19T08:49:09.840Z,28.85
2019-03-19T08:51:36.538Z,29.57
2019-03-19T08:54:03.334Z,23.62
2019-03-19T08:56:30.053Z,29.40
2019-03-19T08:59:05.519Z,18.87
2019-03-19T09:01:25.307Z,15.23
2019-03-19T09:03:51.892Z,18.50
2019-03-19T09:06:18.572Z,19.27
2019-03-19T09:08:45.149Z,20.65
2019-03-19T09:11:11.814Z,21.48
2019-03-19T09:13:38.411Z,23.52
2019-03-19T09:16:05.179Z,15.20
2019-03-19T09:18:31.855Z,23.10
2019-03-19T09:20:58.519Z,17.35
2019-03-19T09:23:25.313Z,17.35
2019-03-19T09:25:51.987Z,20.77
2019-03-19T09:28:18.673Z,17.55
2019-03-19T09:30:45.425Z,16.67
2019-03-19T09:33:12.114Z,21.07
2019-03-19T09:35:38.780Z,13.85
2019-03-19T09:38:05.432Z,25.55
2019-03-19T09:40:32.228Z,18.42
2019-03-19T09:42:59.030Z,13.50
2019-03-19T09:45:25.817Z,18.60
2019-03-19T09:47:52.387Z,19.05
2019-03-19T09:50:19.175Z,21.27
2019-03-19T09:52:45.954Z,16.30
2019-03-19T09:55:12.991Z,18.05
2019-03-19T09:57:39.759Z,10.72
2019-03-19T10:00:08.754Z,16.27
2019-03-19T10:02:35.435Z,20.30
2019-03-19T10:05:02.241Z,12.40
2019-03-19T10:07:28.911Z,13.40
2019-03-19T10:09:55.603Z,18.80
2019-03-19T10:12:22.373Z,18.27
2019-03-19T10:14:49.056Z,19.15
2019-03-19T10:17:15.728Z,17.57
2019-03-19T10:19:42.329Z,15.28
2019-03-19T10:22:08.975Z,13.18
2019-03-19T10:24:35.572Z,15.88
2019-03-19T10:27:02.240Z,10.28
2019-03-19T10:29:37.823Z,15.25
2019-03-19T10:31:57.508Z,10.35
2019-03-19T10:34:24.206Z,7.50
2019-03-19T10:36:50.975Z,12.80
2019-03-19T10:39:17.574Z,11.78
2019-03-19T10:41:44.151Z,12.47
2019-03-19T10:44:10.955Z,9.43
2019-03-19T10:46:37.611Z,10.35
2019-03-19T10:49:04.395Z,15.95
2019-03-19T10:51:31.169Z,16.85
2019-03-19T10:53:57.868Z,8.40
2019-03-19T10:56:24.552Z,13.98
2019-03-19T10:58:51.346Z,10.75
2019-03-19T11:01:18.017Z,11.15
2019-03-19T11:03:44.695Z,21.97
2019-03-19T11:06:12.403Z,10.43
2019-03-19T11:08:39.058Z,10.58
2019-03-19T11:11:05.871Z,11.65
2019-03-19T11:13:32.533Z,15.13
2019-03-19T11:15:59.285Z,9.98
2019-03-19T11:18:25.911Z,9.40
2019-03-19T11:20:52.645Z,8.75
2019-03-19T11:23:19.215Z,11.53
2019-03-19T11:25:54.137Z,11.63
2019-03-19T11:28:14.473Z,9.35
2019-03-19T11:30:41.158Z,9.88
2019-03-19T11:33:07.714Z,10.58
2019-03-19T11:35:34.406Z,5.60
2019-03-19T11:38:01.079Z,8.23
2019-03-19T11:40:27.815Z,10.30
2019-03-19T11:42:54.495Z,9.10
2019-03-19T11:45:21.300Z,11.93
2019-03-19T11:47:48.072Z,9.98
2019-03-19T11:50:19.240Z,29.90
2019-03-19T11:52:46.027Z,12.20
2019-03-19T11:55:12.947Z,14.33
2019-03-19T11:57:39.744Z,13.88
2019-03-19T12:00:11.695Z,21.75
2019-03-19T12:02:38.579Z,13.32
2019-03-19T12:05:06.245Z,12.53
2019-03-19T12:07:33.847Z,14.58
2019-03-19T12:10:00.529Z,16.10
2019-03-19T12:12:27.096Z,10.60
2019-03-19T12:14:53.675Z,6.45
2019-03-19T12:17:20.340Z,10.43
2019-03-19T12:19:47.033Z,10.65
2019-03-19T12:22:13.604Z,7.53
2019-03-19T12:24:40.382Z,5.65
2019-03-19T12:27:07.078Z,8.18
2019-03-19T12:29:33.849Z,6.45
2019-03-19T12:32:00.442Z,10.13
2019-03-19T12:34:27.006Z,7.87
2019-03-19T12:36:53.791Z,11.40
2019-03-19T12:39:20.361Z,10.85
2019-03-19T12:41:48.559Z,9.73
2019-03-19T12:44:15.410Z,12.13
2019-03-19T12:46:42.000Z,11.12
2019-03-19T12:49:08.773Z,6.92
2019-03-19T12:51:35.586Z,9.25
2019-03-19T12:54:02.370Z,11.05
2019-03-19T12:56:30.477Z,11.43
2019-03-19T12:58:57.212Z,13.13
2019-03-19T13:01:24.009Z,8.30
2019-03-19T13:03:50.883Z,10.53
2019-03-19T13:06:17.714Z,10.05
2019-03-19T13:08:44.395Z,10.55
2019-03-19T13:11:11.083Z,10.80
2019-03-19T13:13:37.838Z,6.00
2019-03-19T13:16:04.534Z,11.68
2019-03-19T13:18:31.274Z,12.10
2019-03-19T13:20:57.860Z,10.65
2019-03-19T13:23:26.291Z,10.30
2019-03-19T13:25:53.124Z,7.20
2019-03-19T13:28:19.785Z,9.30
2019-03-19T13:30:46.499Z,4.90
2019-03-19T13:33:13.267Z,11.15
2019-03-19T13:35:40.065Z,13.62
2019-03-19T13:38:06.739Z,7.05
2019-03-19T13:40:33.411Z,10.55
2019-03-19T13:43:00.082Z,9.45
2019-03-19T13:45:26.957Z,7.33
2019-03-19T13:47:53.725Z,7.37
2019-03-19T13:50:20.630Z,8.83
2019-03-19T13:52:47.520Z,6.90
2019-03-19T13:55:14.693Z,9.30
2019-03-19T13:57:41.482Z,8.63
2019-03-19T14:00:09.428Z,9.43
2019-03-19T14:02:36.122Z,8.35
2019-03-19T14:05:03.595Z,6.20
2019-03-19T14:07:30.280Z,11.10
2019-03-19T14:09:57.050Z,7.70
2019-03-19T14:12:23.743Z,7.60
2019-03-19T14:14:50.545Z,14.43
2019-03-19T14:17:17.332Z,6.67
2019-03-19T14:19:43.896Z,5.35
2019-03-19T14:22:10.692Z,8.60
2019-03-19T14:24:37.354Z,8.33
2019-03-19T14:27:04.042Z,5.35
2019-03-19T14:29:30.716Z,11.50
2019-03-19T14:31:57.391Z,8.93
2019-03-19T14:34:24.161Z,7.60
2019-03-19T14:36:50.962Z,8.78
2019-03-19T14:39:17.723Z,6.35
2019-03-19T14:41:45.643Z,6.65
2019-03-19T14:44:12.499Z,7.80
2019-03-19T14:46:40.020Z,8.73
2019-03-19T14:49:06.737Z,7.42
2019-03-19T14:51:33.420Z,7.95
2019-03-19T14:54:00.101Z,7.15
2019-03-19T14:56:26.699Z,7.85
2019-03-19T14:58:53.368Z,9.28
2019-03-19T15:01:20.066Z,7.20
2019-03-19T15:03:46.873Z,6.25
2019-03-19T15:06:13.529Z,6.95
2019-03-19T15:08:40.251Z,8.90
2019-03-19T15:11:07.252Z,6.55
2019-03-19T15:13:33.843Z,10.15
2019-03-19T15:16:00.713Z,8.93
2019-03-19T15:18:27.373Z,8.65
2019-03-19T15:20:53.942Z,7.35
2019-03-19T15:23:20.811Z,7.30
2019-03-19T15:25:47.486Z,7.72
2019-03-19T15:28:14.259Z,5.00
2019-03-19T15:30:40.927Z,11.18
2019-03-19T15:33:07.542Z,8.35
2019-03-19T15:35:34.249Z,8.40
2019-03-19T15:38:01.112Z,5.58
2019-03-19T15:40:27.798Z,5.42
2019-03-19T15:42:54.559Z,7.78
2019-03-19T15:45:21.311Z,10.35
2019-03-19T15:47:47.998Z,7.53
2019-03-19T15:50:14.954Z,7.25
2019-03-19T15:52:41.852Z,13.88
2019-03-19T15:55:08.729Z,8.50
2019-03-19T15:57:35.447Z,8.65
2019-03-19T16:00:03.432Z,8.80
2019-03-19T16:02:30.129Z,7.53
2019-03-19T16:04:56.795Z,8.15
2019-03-19T16:07:23.488Z,10.38
2019-03-19T16:09:50.147Z,6.53
2019-03-19T16:12:16.826Z,10.63
2019-03-19T16:14:43.387Z,7.15
2019-03-19T16:17:10.071Z,12.98
2019-03-19T16:19:36.630Z,6.45
2019-03-19T16:22:03.428Z,8.33
2019-03-19T16:24:30.105Z,6.00
2019-03-19T16:26:56.667Z,7.40
2019-03-19T16:29:23.353Z,6.92
2019-03-19T16:31:51.090Z,10.68
2019-03-19T16:34:18.216Z,6.85
2019-03-19T16:36:44.762Z,6.17
2019-03-19T16:39:11.349Z,7.90
2019-03-19T16:41:38.010Z,10.95
2019-03-19T16:44:04.811Z,8.88
2019-03-19T16:46:31.571Z,10.88
2019-03-19T16:48:58.275Z,10.43
2019-03-19T16:51:24.947Z,8.65
2019-03-19T16:53:51.639Z,7.20
2019-03-19T16:56:18.432Z,5.78
2019-03-19T16:58:45.113Z,8.10
2019-03-19T17:01:11.778Z,10.48
2019-03-19T17:03:38.472Z,6.83
2019-03-19T17:06:05.240Z,7.42
2019-03-19T17:08:31.926Z,7.45
2019-03-19T17:10:58.697Z,7.47
2019-03-19T17:13:25.290Z,5.42
2019-03-19T17:15:51.967Z,9.48
2019-03-19T17:18:18.653Z,11.95
2019-03-19T17:20:45.441Z,13.90
2019-03-19T17:23:12.031Z,10.35
2019-03-19T17:25:38.694Z,12.18
2019-03-19T17:28:05.495Z,8.10
2019-03-19T17:30:32.327Z,12.70
2019-03-19T17:32:59.123Z,10.93
2019-03-19T17:35:25.883Z,6.25
2019-03-19T17:37:52.674Z,8.03
2019-03-19T17:40:19.442Z,9.35
2019-03-19T17:42:46.233Z,6.60
2019-03-19T17:45:13.159Z,10.10
2019-03-19T17:47:39.984Z,13.35
2019-03-19T17:50:09.597Z,16.12
2019-03-19T17:52:36.402Z,18.12
2019-03-19T17:55:03.704Z,11.15
2019-03-19T17:57:30.289Z,13.90
2019-03-19T17:59:56.972Z,8.90
2019-03-19T18:02:24.417Z,10.30
2019-03-19T18:04:51.140Z,10.03
2019-03-19T18:07:17.798Z,8.65
2019-03-19T18:09:44.393Z,11.53
2019-03-19T18:12:11.160Z,12.90
2019-03-19T18:14:37.856Z,10.03
2019-03-19T18:17:04.629Z,9.18
2019-03-19T18:19:31.711Z,7.78
2019-03-19T18:21:58.391Z,8.15
2019-03-19T18:24:24.996Z,10.93
2019-03-19T18:26:51.676Z,12.45
2019-03-19T18:29:18.359Z,8.93
2019-03-19T18:31:45.042Z,5.53
2019-03-19T18:34:11.762Z,8.10
2019-03-19T18:36:38.832Z,7.97
2019-03-19T18:39:07.011Z,7.47
2019-03-19T18:41:33.679Z,8.20
2019-03-19T18:44:00.271Z,15.00
2019-03-19T18:46:26.839Z,14.50
2019-03-19T18:48:53.440Z,11.00
2019-03-19T18:51:20.138Z,12.35
2019-03-19T18:53:46.893Z,11.45
2019-03-19T18:56:13.586Z,10.28
2019-03-19T18:58:40.280Z,11.03
2019-03-19T19:01:06.975Z,6.35
2019-03-19T19:03:33.548Z,11.78
2019-03-19T19:06:00.122Z,10.48
2019-03-19T19:08:26.906Z,8.08
2019-03-19T19:10:53.476Z,7.80
2019-03-19T19:13:20.103Z,7.35
2019-03-19T19:15:46.689Z,7.60
2019-03-19T19:18:13.432Z,6.85
2019-03-19T19:20:40.106Z,9.58
2019-03-19T19:23:06.807Z,10.25
2019-03-19T19:25:33.541Z,10.48
2019-03-19T19:28:00.249Z,9.10
2019-03-19T19:30:27.059Z,10.25
2019-03-19T19:33:01.718Z,11.97
2019-03-19T19:35:22.491Z,10.68
2019-03-19T19:37:49.161Z,10.32
2019-03-19T19:40:15.974Z,11.10
2019-03-19T19:42:42.851Z,16.40
2019-03-19T19:45:09.706Z,9.83
2019-03-19T19:47:36.501Z,10.95
2019-03-19T19:50:04.225Z,9.50
2019-03-19T19:52:30.834Z,9.03
2019-03-19T19:54:57.428Z,15.80
2019-03-19T19:57:24.213Z,11.03
2019-03-19T19:59:50.909Z,23.05
2019-03-19T20:02:17.589Z,9.50
2019-03-19T20:04:44.379Z,8.88
2019-03-19T20:07:11.157Z,6.72
2019-03-19T20:09:37.863Z,7.15
2019-03-19T20:12:04.606Z,11.33
2019-03-19T20:14:31.402Z,11.45
2019-03-19T20:16:58.080Z,6.08
2019-03-19T20:19:24.767Z,16.12
2019-03-19T20:21:51.455Z,12.88
2019-03-19T20:24:18.127Z,14.78
2019-03-19T20:26:44.817Z,8.00
2019-03-19T20:29:11.389Z,11.35
2019-03-19T20:31:38.101Z,14.28
2019-03-19T20:34:04.780Z,13.40
2019-03-19T20:36:31.488Z,16.25
2019-03-19T20:38:58.166Z,11.57
2019-03-19T20:41:24.984Z,14.25
2019-03-19T20:43:51.748Z,13.25
2019-03-19T20:46:18.546Z,11.53
2019-03-19T20:48:45.230Z,14.87
2019-03-19T20:51:12.024Z,15.00
2019-03-19T20:53:38.812Z,13.40
2019-03-19T20:56:05.532Z,13.28
2019-03-19T20:58:42.867Z,16.23
2019-03-19T21:01:01.008Z,15.93
2019-03-19T21:03:35.501Z,21.12
2019-03-19T21:05:56.209Z,14.43
2019-03-19T21:08:22.886Z,12.40
2019-03-19T21:10:49.582Z,14.93
2019-03-19T21:13:16.270Z,11.05
2019-03-19T21:15:43.078Z,14.15
2019-03-19T21:18:09.876Z,18.85
2019-03-19T21:20:36.592Z,19.55
2019-03-19T21:23:03.367Z,22.62
2019-03-19T21:25:30.171Z,17.55
2019-03-19T21:27:56.840Z,14.58
2019-03-19T21:30:23.632Z,15.10
2019-03-19T21:32:50.398Z,17.35
2019-03-19T21:35:18.594Z,27.52
2019-03-19T21:37:45.269Z,24.02
2019-03-19T21:40:12.086Z,20.30
2019-03-19T21:42:39.103Z,17.02
2019-03-19T21:45:06.329Z,16.93
2019-03-19T21:47:33.026Z,17.67
2019-03-19T21:49:59.705Z,17.48
2019-03-19T21:52:26.399Z,18.48
2019-03-19T21:54:53.217Z,14.13
2019-03-19T21:57:19.920Z,19.05
2019-03-19T21:59:46.486Z,16.12
2019-03-19T22:02:13.194Z,15.60
2019-03-19T22:04:39.778Z,19.67
2019-03-19T22:07:06.470Z,21.65
2019-03-19T22:09:33.181Z,17.77
2019-03-19T22:11:59.980Z,15.00
2019-03-19T22:14:26.661Z,17.07
2019-03-19T22:16:53.255Z,13.32
2019-03-19T22:19:19.923Z,14.43
2019-03-19T22:21:46.520Z,16.12
2019-03-19T22:24:13.306Z,13.88
2019-03-19T22:26:40.006Z,22.52
2019-03-19T22:29:06.792Z,17.82
2019-03-19T22:31:33.479Z,12.53
2019-03-19T22:34:00.147Z,17.67
2019-03-19T22:36:26.842Z,16.10
2019-03-19T22:38:53.651Z,17.37
2019-03-19T22:41:20.328Z,14.65
2019-03-19T22:43:46.929Z,9.78
2019-03-19T22:46:21.272Z,13.70
2019-03-19T22:48:42.202Z,15.48
2019-03-19T22:51:08.897Z,12.43
2019-03-19T22:53:35.475Z,13.88
2019-03-19T22:56:02.164Z,12.45
2019-03-19T22:58:28.863Z,10.80
2019-03-19T23:00:57.654Z,16.97
2019-03-19T23:03:24.452Z,12.65
2019-03-19T23:05:51.264Z,20.43
2019-03-19T23:08:18.036Z,14.40
2019-03-19T23:10:44.864Z,22.93
2019-03-19T23:13:12.172Z,12.80
2019-03-19T23:15:38.937Z,15.70
2019-03-19T23:18:05.735Z,21.25
2019-03-19T23:20:32.509Z,15.43
2019-03-19T23:22:59.304Z,15.25
2019-03-19T23:25:26.077Z,13.75
2019-03-19T23:27:52.866Z,12.15
2019-03-19T23:30:19.666Z,13.18
2019-03-19T23:32:46.364Z,19.00
2019-03-19T23:35:13.029Z,17.92
2019-03-19T23:37:39.816Z,12.50
2019-03-19T23:40:06.610Z,26.57
2019-03-19T23:42:33.198Z,34.18
2019-03-19T23:45:00.037Z,23.25
2019-03-19T23:47:26.736Z,22.40
2019-03-19T23:49:53.312Z,10.03
2019-03-19T23:52:19.911Z,9.58
2019-03-19T23:54:46.586Z,16.10
2019-03-19T23:57:13.387Z,12.10
2019-03-19T23:59:40.067Z,13.98
